Time;durP1;ratioP1;P1;durP2;ratioP2;P2;SDS_P1;SDS_P2;PMS_P1;PMS_P2;Temp;Humidity;BMP_temperature;BMP_pressure;BME280_temperature;BME280_humidity;BME280_pressure;Samples;Min_cycle;Max_cycle;Signal;HPM_P1;HPM_P2
2021/12/13 00:02:52;;;;;;;27.70;13.85;;;6.50;54.90;;;;;;5032472;28;20096;-86
2021/12/13 00:05:29;;;;;;;26.75;13.25;;;6.50;54.90;;;;;;5022657;28;20045;-84
2021/12/13 00:08:00;;;;;;;25.45;13.38;;;6.40;55.00;;;;;;5033733;28;20124;-82
2021/12/13 00:10:54;;;;;;;29.85;13.70;;;6.50;54.90;;;;;;5032977;28;20064;-85
2021/12/13 00:13:24;;;;;;;25.90;13.60;;;6.50;54.90;;;;;;5025340;28;20059;-87
2021/12/13 00:15:56;;;;;;;25.83;13.25;;;6.40;54.90;;;;;;5034330;28;21446;-88
2021/12/13 00:18:31;;;;;;;25.60;13.15;;;6.40;55.00;;;;;;5033504;28;20116;-89
2021/12/13 00:21:07;;;;;;;24.38;13.05;;;6.40;55.00;;;;;;5034206;28;20033;-86
2021/12/13 00:23:59;;;;;;;26.60;13.68;;;6.50;55.00;;;;;;5033869;28;20060;-88
2021/12/13 00:26:40;;;;;;;25.58;13.50;;;6.40;55.00;;;;;;5033278;28;20456;-86
2021/12/13 00:29:15;;;;;;;27.95;14.00;;;6.30;55.00;;;;;;5018492;28;20100;-87
2021/12/13 00:32:03;;;;;;;25.92;13.18;;;6.30;55.20;;;;;;5032851;28;20029;-86
2021/12/13 00:34:31;;;;;;;28.42;14.07;;;6.40;55.20;;;;;;5034580;28;20033;-86
2021/12/13 00:37:11;;;;;;;24.42;13.18;;;6.30;55.20;;;;;;5017109;28;20526;-85
2021/12/13 00:39:47;;;;;;;28.77;14.05;;;6.30;55.30;;;;;;5033994;28;20036;-86
2021/12/13 00:42:14;;;;;;;;;;;6.30;55.40;;;;;;5033626;28;20061;-86
2021/12/13 00:44:47;;;;;;;25.73;13.98;;;6.30;55.30;;;;;;5034171;28;19935;-86
2021/12/13 00:47:21;;;;;;;26.23;14.05;;;6.30;55.40;;;;;;5032248;28;20037;-85
2021/12/13 00:49:54;;;;;;;23.33;12.50;;;6.40;55.40;;;;;;5033088;28;20029;-85
2021/12/13 00:52:20;;;;;;;23.80;13.10;;;6.50;55.30;;;;;;5017616;28;20496;-86
2021/12/13 00:54:47;;;;;;;21.10;12.43;;;6.50;55.10;;;;;;5033806;28;21018;-85
2021/12/13 00:57:43;;;;;;;24.10;12.77;;;6.60;55.00;;;;;;5036806;28;20207;-87
2021/12/13 01:00:14;;;;;;;23.40;13.07;;;6.50;54.90;;;;;;5037630;28;20029;-86
2021/12/13 01:02:52;;;;;;;23.75;13.20;;;6.60;54.90;;;;;;5036456;28;20025;-83
2021/12/13 01:05:24;;;;;;;26.25;13.40;;;6.70;54.70;;;;;;5039150;28;20033;-88
2021/12/13 01:08:02;;;;;;;23.20;12.00;;;6.60;54.80;;;;;;5038567;28;20030;-89
2021/12/13 01:11:06;;;;;;;23.88;12.55;;;6.60;54.80;;;;;;5041775;28;20029;-91
2021/12/13 01:14:03;;;;;;;24.15;12.68;;;6.60;54.80;;;;;;5022830;28;20998;-86
2021/12/13 01:16:50;;;;;;;22.95;12.80;;;6.60;54.80;;;;;;5037232;28;20135;-90
2021/12/13 01:19:31;;;;;;;24.33;12.65;;;6.70;54.60;;;;;;5040396;28;20026;-89
2021/12/13 01:22:48;;;;;;;25.08;13.63;;;6.60;54.60;;;;;;5037367;28;20045;-89
2021/12/13 01:25:59;;;;;;;24.15;13.05;;;6.60;54.60;;;;;;5035808;28;20037;-87
2021/12/13 01:28:39;;;;;;;24.40;13.32;;;6.60;54.70;;;;;;5037775;28;20042;-88
2021/12/13 01:31:17;;;;;;;28.70;14.48;;;6.60;54.60;;;;;;5037435;28;20060;-89
2021/12/13 01:33:46;;;;;;;24.30;13.40;;;6.60;54.70;;;;;;5037741;28;20034;-86
2021/12/13 01:36:21;;;;;;;26.65;14.57;;;6.60;54.70;;;;;;5034834;28;20121;-82
2021/12/13 01:38:57;;;;;;;27.25;13.38;;;6.60;54.60;;;;;;5035201;28;20772;-85
2021/12/13 01:41:32;;;;;;;30.27;13.88;;;6.60;54.70;;;;;;5036977;28;20080;-86
2021/12/13 01:44:06;;;;;;;29.35;13.52;;;6.60;54.90;;;;;;5035599;28;20092;-85
2021/12/13 01:46:38;;;;;;;26.90;14.07;;;6.60;54.70;;;;;;5017866;28;20535;-82
2021/12/13 01:49:05;;;;;;;26.15;14.38;;;6.60;54.80;;;;;;5019293;28;20046;-83
2021/12/13 01:51:33;;;;;;;28.95;14.88;;;6.50;54.90;;;;;;5021908;28;20041;-80
2021/12/13 01:54:07;;;;;;;28.52;15.07;;;6.50;54.90;;;;;;5035422;28;20084;-79
2021/12/13 01:57:09;;;;;;;34.47;15.68;;;6.50;54.80;;;;;;5034887;28;20046;-85
2021/12/13 01:59:56;;;;;;;32.45;14.88;;;6.50;54.80;;;;;;5034014;28;21030;-89
2021/12/13 02:02:27;;;;;;;28.55;15.15;;;6.50;54.90;;;;;;5035244;28;20039;-86
2021/12/13 02:05:14;;;;;;;29.58;15.40;;;6.60;54.90;;;;;;5035012;28;20122;-83
2021/12/13 02:07:40;;;;;;;31.02;15.35;;;6.50;55.00;;;;;;5035281;28;20128;-86
2021/12/13 02:10:18;;;;;;;29.85;15.25;;;6.50;55.00;;;;;;5020149;28;20057;-85
2021/12/13 02:12:47;;;;;;;28.50;15.20;;;6.50;55.10;;;;;;5016373;28;20524;-85
2021/12/13 02:18:00;;;;;;;35.75;17.33;;;6.50;55.20;;;;;;5034742;28;20116;-84
2021/12/13 02:20:41;;;;;;;35.17;16.20;;;6.40;55.20;;;;;;5025174;28;20136;-88
2021/12/13 02:23:07;;;;;;;35.60;16.85;;;6.40;55.40;;;;;;5018383;28;20048;-86
2021/12/13 02:25:35;;;;;;;32.78;16.55;;;6.40;55.40;;;;;;5034592;28;20045;-85
2021/12/13 02:28:10;;;;;;;34.45;15.95;;;6.40;55.40;;;;;;5017850;28;20033;-90
2021/12/13 02:30:54;;;;;;;35.30;17.43;;;6.40;55.40;;;;;;5037009;28;20037;-89
2021/12/13 02:33:45;;;;;;;34.97;16.77;;;6.40;55.30;;;;;;5037517;28;20337;-89
2021/12/13 02:36:21;;;;;;;32.47;16.50;;;6.40;55.30;;;;;;5026585;28;20050;-83
2021/12/13 02:38:51;;;;;;;38.03;18.27;;;6.40;55.40;;;;;;5034336;28;20045;-85
2021/12/13 02:41:20;;;;;;;37.85;18.73;;;6.40;55.40;;;;;;5043084;28;20037;-88
2021/12/13 02:43:50;;;;;;;37.90;17.85;;;6.40;55.40;;;;;;5034852;28;20038;-86
2021/12/13 02:46:17;;;;;;;39.55;18.52;;;6.30;55.50;;;;;;5016849;28;20052;-83
2021/12/13 02:48:50;;;;;;;37.92;18.58;;;6.40;55.40;;;;;;5034135;28;20408;-87
2021/12/13 02:51:28;;;;;;;34.92;17.88;;;6.40;55.40;;;;;;5033687;28;20090;-86
2021/12/13 02:53:59;;;;;;;35.70;18.35;;;6.30;55.40;;;;;;5034738;28;20049;-86
2021/12/13 02:56:30;;;;;;;39.67;17.60;;;6.30;55.50;;;;;;5035621;28;20049;-86
2021/12/13 02:58:59;;;;;;;41.65;18.83;;;6.30;55.60;;;;;;5035572;28;20089;-83
2021/12/13 03:01:31;;;;;;;40.97;18.95;;;6.30;55.60;;;;;;5036462;28;20025;-85
2021/12/13 03:04:00;;;;;;;40.17;18.58;;;6.30;55.70;;;;;;5020529;28;20037;-87
2021/12/13 03:06:34;;;;;;;41.35;18.65;;;6.30;55.70;;;;;;5037007;28;20133;-86
2021/12/13 03:09:11;;;;;;;40.50;18.50;;;6.30;55.70;;;;;;5037334;28;20030;-85
2021/12/13 03:11:38;;;;;;;45.17;20.42;;;6.30;55.60;;;;;;5036343;28;20028;-84
2021/12/13 03:14:30;;;;;;;41.35;19.55;;;6.30;55.70;;;;;;5022008;28;20038;-85
2021/12/13 03:17:01;;;;;;;44.03;19.80;;;6.30;55.80;;;;;;5033452;28;20041;-85
2021/12/13 03:19:42;;;;;;;42.05;19.58;;;6.30;55.80;;;;;;5016496;28;20050;-85
2021/12/13 03:22:35;;;;;;;44.03;19.30;;;6.30;55.80;;;;;;5033888;28;20022;-85
2021/12/13 03:25:17;;;;;;;47.05;20.35;;;6.30;55.80;;;;;;5001148;28;20025;-84
2021/12/13 03:28:41;;;;;;;49.45;20.60;;;6.30;55.80;;;;;;5016864;28;20033;-87
2021/12/13 03:31:23;;;;;;;42.80;19.13;;;6.20;55.90;;;;;;4947045;29;20035;-84
2021/12/13 03:34:08;;;;;;;43.10;18.88;;;6.20;56.30;;;;;;4946892;29;20035;-86
2021/12/13 03:36:58;;;;;;;45.30;21.15;;;6.20;56.10;;;;;;5007975;28;20053;-83
2021/12/13 03:39:41;;;;;;;41.20;18.42;;;6.20;56.10;;;;;;5034874;28;20049;-85
2021/12/13 03:42:18;;;;;;;41.60;20.08;;;6.20;56.20;;;;;;5034499;28;20033;-85
2021/12/13 03:44:48;;;;;;;43.30;19.83;;;6.30;56.20;;;;;;5035613;28;20112;-89
2021/12/13 03:47:28;;;;;;;40.80;19.10;;;6.30;56.10;;;;;;5015720;28;20085;-83
2021/12/13 03:49:59;;;;;;;36.95;18.95;;;6.30;56.10;;;;;;5031022;28;20102;-86
2021/12/13 03:52:29;;;;;;;40.08;17.80;;;6.40;56.00;;;;;;5032838;28;20033;-84
2021/12/13 03:54:57;;;;;;;36.50;17.85;;;6.40;56.00;;;;;;5033508;28;20041;-82
2021/12/13 03:57:25;;;;;;;39.97;19.20;;;6.50;55.80;;;;;;5018580;28;20061;-86
2021/12/13 03:59:52;;;;;;;34.70;16.92;;;6.50;55.80;;;;;;5019941;28;20037;-81
2021/12/13 04:02:23;;;;;;;38.97;17.83;;;6.50;55.60;;;;;;5031640;28;20036;-81
2021/12/13 04:04:58;;;;;;;36.53;18.35;;;6.60;55.60;;;;;;5032091;28;20096;-81
2021/12/13 04:07:28;;;;;;;35.20;17.50;;;6.60;55.60;;;;;;5013978;28;20049;-80
2021/12/13 04:09:57;;;;;;;34.22;16.63;;;6.60;55.60;;;;;;5031639;28;20034;-82
2021/12/13 04:12:34;;;;;;;35.28;16.77;;;6.60;55.60;;;;;;5033759;28;20044;-82
2021/12/13 04:15:13;;;;;;;34.92;16.35;;;6.60;55.50;;;;;;5033354;28;20037;-80
2021/12/13 04:17:45;;;;;;;36.42;16.52;;;6.60;55.50;;;;;;5033664;28;20061;-80
2021/12/13 04:20:26;;;;;;;31.92;15.98;;;6.60;55.60;;;;;;5034487;28;20049;-83
2021/12/13 04:22:55;;;;;;;29.13;15.13;;;6.60;55.60;;;;;;5033716;28;20033;-82
2021/12/13 04:25:31;;;;;;;29.73;15.25;;;6.60;55.60;;;;;;5014967;28;20043;-85
2021/12/13 04:28:23;;;;;;;29.98;15.02;;;6.60;55.60;;;;;;5033114;28;20417;-88
2021/12/13 04:31:03;;;;;;;31.77;15.50;;;6.60;55.70;;;;;;5033046;28;20037;-86
2021/12/13 04:33:37;;;;;;;33.67;15.20;;;6.60;55.70;;;;;;5015194;28;20041;-87
2021/12/13 04:36:22;;;;;;;31.77;15.38;;;6.50;55.70;;;;;;5033925;28;20041;-88
2021/12/13 04:39:14;;;;;;;31.10;15.82;;;6.50;55.70;;;;;;5036159;28;20045;-91
2021/12/13 04:41:48;;;;;;;29.33;15.23;;;6.50;55.80;;;;;;5033903;28;20045;-81
2021/12/13 04:44:52;;;;;;;29.40;14.55;;;6.50;55.80;;;;;;5036414;28;20017;-85
2021/12/13 04:47:31;;;;;;;31.02;14.20;;;6.50;55.70;;;;;;5024519;28;20037;-90
2021/12/13 04:50:13;;;;;;;32.17;14.73;;;6.50;55.60;;;;;;5039662;28;20037;-91
2021/12/13 04:52:40;;;;;;;32.45;14.32;;;6.50;55.70;;;;;;5038963;28;20033;-89
2021/12/13 04:55:11;;;;;;;36.08;15.25;;;6.50;55.70;;;;;;5019739;28;20030;-87
2021/12/13 04:57:38;;;;;;;29.55;15.70;;;6.50;55.70;;;;;;5035719;28;20042;-87
2021/12/13 05:00:11;;;;;;;32.35;14.80;;;6.50;55.80;;;;;;5039202;28;20037;-93
2021/12/13 05:02:47;;;;;;;32.65;15.13;;;6.50;56.00;;;;;;5038088;28;20044;-87
2021/12/13 05:05:15;;;;;;;32.08;16.25;;;6.50;56.00;;;;;;5036870;28;20057;-83
2021/12/13 05:07:43;;;;;;;37.15;15.52;;;6.50;56.00;;;;;;5037555;28;20034;-90
2021/12/13 05:10:12;;;;;;;33.33;14.77;;;6.50;55.90;;;;;;5038536;28;20038;-93
2021/12/13 05:12:39;;;;;;;31.80;15.52;;;6.50;56.10;;;;;;5037506;28;20014;-83
2021/12/13 05:15:11;;;;;;;32.40;15.35;;;6.50;56.10;;;;;;5036721;28;20049;-88
2021/12/13 05:17:44;;;;;;;30.00;14.60;;;6.50;56.10;;;;;;5038297;28;20041;-91
2021/12/13 05:20:27;;;;;;;31.95;16.35;;;6.50;56.10;;;;;;5019176;28;20045;-88
2021/12/13 05:22:58;;;;;;;31.15;14.38;;;6.40;56.10;;;;;;5037278;28;20037;-78
2021/12/13 05:25:32;;;;;;;33.40;15.48;;;6.40;56.30;;;;;;5038081;28;20029;-91
2021/12/13 05:28:11;;;;;;;35.60;15.50;;;6.40;56.30;;;;;;5036979;28;20094;-89
2021/12/13 05:31:02;;;;;;;31.98;16.10;;;6.40;56.40;;;;;;5035552;28;20033;-88
2021/12/13 05:33:34;;;;;;;29.55;14.38;;;6.40;56.40;;;;;;5037226;28;20041;-78
2021/12/13 05:36:09;;;;;;;35.58;15.95;;;6.40;56.40;;;;;;5037446;28;20056;-92
2021/12/13 05:38:44;;;;;;;35.45;16.35;;;6.40;56.40;;;;;;5036996;28;20132;-89
2021/12/13 05:41:21;;;;;;;34.75;16.08;;;6.40;56.50;;;;;;5022097;28;20116;-87
2021/12/13 05:43:50;;;;;;;33.42;15.02;;;6.40;56.40;;;;;;5041179;28;20033;-87
2021/12/13 05:46:20;;;;;;;34.67;15.52;;;6.40;56.40;;;;;;5042270;28;20065;-88
2021/12/13 05:48:48;;;;;;;34.38;15.75;;;6.40;56.50;;;;;;5041393;28;20041;-91
2021/12/13 05:51:26;;;;;;;39.13;16.55;;;6.40;56.30;;;;;;5041687;28;20033;-91
2021/12/13 05:54:04;;;;;;;36.17;15.02;;;6.40;56.40;;;;;;5040718;28;20060;-89
2021/12/13 05:56:46;;;;;;;31.42;15.50;;;6.40;56.50;;;;;;5040819;28;20037;-90
2021/12/13 05:59:29;;;;;;;32.97;14.88;;;6.30;56.50;;;;;;5041142;28;20056;-93
2021/12/13 06:02:06;;;;;;;33.95;14.60;;;6.40;56.50;;;;;;5041412;28;20030;-94
2021/12/13 06:04:46;;;;;;;32.17;15.40;;;6.40;56.50;;;;;;5039931;28;20038;-84
2021/12/13 06:07:20;;;;;;;29.60;14.48;;;6.30;56.60;;;;;;5024271;28;20052;-84
2021/12/13 06:10:21;;;;;;;35.63;15.13;;;6.40;56.70;;;;;;5023508;28;20038;-90
2021/12/13 06:12:49;;;;;;;31.13;14.85;;;6.30;56.70;;;;;;4984517;28;20050;-90
2021/12/13 06:15:15;;;;;;;33.78;14.80;;;6.30;56.80;;;;;;4993322;28;20175;-90
2021/12/13 06:17:51;;;;;;;35.58;14.90;;;6.30;56.80;;;;;;5042902;28;20036;-81
2021/12/13 06:20:50;;;;;;;29.60;13.93;;;6.30;56.80;;;;;;5046648;28;20079;-87
2021/12/13 06:23:16;;;;;;;34.67;15.70;;;6.30;56.80;;;;;;4981441;28;20082;-85
2021/12/13 06:25:44;;;;;;;30.90;14.13;;;6.30;56.80;;;;;;4983189;28;20066;-87
2021/12/13 06:28:38;;;;;;;32.92;14.70;;;6.30;56.70;;;;;;5030661;28;20095;-81
2021/12/13 06:31:12;;;;;;;35.08;14.27;;;6.30;56.80;;;;;;5038353;28;20052;-86
2021/12/13 06:33:49;;;;;;;38.17;15.15;;;6.30;56.70;;;;;;5027240;28;20040;-90
2021/12/13 06:36:24;;;;;;;30.73;14.40;;;6.30;56.80;;;;;;5038894;28;20109;-89
2021/12/13 06:38:53;;;;;;;37.80;16.15;;;6.20;57.00;;;;;;5035981;28;20129;-79
2021/12/13 06:41:27;;;;;;;32.70;15.50;;;6.20;57.00;;;;;;5035871;28;20483;-89
2021/12/13 06:44:16;;;;;;;34.78;15.43;;;6.20;57.00;;;;;;5029367;28;20034;-87
2021/12/13 06:46:51;;;;;;;30.95;14.77;;;6.20;56.80;;;;;;5023277;28;20057;-87
2021/12/13 06:49:37;;;;;;;37.50;14.80;;;6.20;56.90;;;;;;5034497;28;20037;-89
2021/12/13 06:52:12;;;;;;;;;;;6.20;56.90;;;;;;5034621;28;20092;-88
2021/12/13 06:54:45;;;;;;;30.77;13.68;;;6.30;57.00;;;;;;5017077;28;19913;-90
2021/12/13 06:57:18;;;;;;;34.75;15.40;;;6.20;56.90;;;;;;5035272;28;20400;-89
2021/12/13 06:59:59;;;;;;;28.75;13.65;;;6.20;57.40;;;;;;5017015;28;20037;-90
2021/12/13 07:02:28;;;;;;;30.15;14.68;;;6.20;56.90;;;;;;5035572;28;20041;-80
2021/12/13 07:05:00;;;;;;;28.77;13.77;;;6.20;56.90;;;;;;5039573;28;20049;-88
2021/12/13 07:07:40;;;;;;;33.70;15.43;;;6.20;56.90;;;;;;5033659;28;20033;-86
2021/12/13 07:10:22;;;;;;;34.38;14.65;;;6.20;57.00;;;;;;5033698;28;20036;-86
2021/12/13 07:12:58;;;;;;;33.25;15.43;;;6.20;57.20;;;;;;5037430;28;20025;-86
2021/12/13 07:16:15;;;;;;;36.03;14.13;;;6.20;57.00;;;;;;5034887;28;20069;-85
2021/12/13 07:18:57;;;;;;;33.80;13.98;;;6.20;57.60;;;;;;4999762;28;20136;-83
2021/12/13 07:21:34;;;;;;;34.42;15.38;;;6.20;57.00;;;;;;5032956;28;20034;-86
2021/12/13 07:24:10;;;;;;;33.50;15.05;;;6.20;57.10;;;;;;5033339;28;20029;-86
2021/12/13 07:26:38;;;;;;;35.00;16.50;;;6.20;57.00;;;;;;5035955;28;20300;-86
2021/12/13 07:29:19;;;;;;;34.30;15.60;;;6.20;57.10;;;;;;5038356;28;20033;-87
2021/12/13 07:32:01;;;;;;;33.50;14.73;;;6.20;57.10;;;;;;5040975;28;20505;-84
2021/12/13 07:34:27;;;;;;;37.08;15.35;;;6.20;57.20;;;;;;5042754;28;20207;-80
2021/12/13 07:36:58;;;;;;;34.63;15.95;;;6.20;57.40;;;;;;5036161;28;20060;-86
2021/12/13 07:39:30;;;;;;;38.50;16.30;;;6.20;60.80;;;;;;5034473;28;20199;-84
2021/12/13 07:42:03;;;;;;;37.15;15.93;;;6.20;61.80;;;;;;5033005;28;20084;-82
2021/12/13 07:44:43;;;;;;;38.03;17.08;;;6.20;62.40;;;;;;5031147;28;20052;-79
2021/12/13 07:47:21;;;;;;;36.20;15.48;;;6.20;62.50;;;;;;5030842;28;20067;-77
2021/12/13 07:49:52;;;;;;;38.28;16.90;;;6.20;62.70;;;;;;5031111;28;20129;-81
2021/12/13 07:52:27;;;;;;;38.47;16.83;;;6.20;63.10;;;;;;5029657;28;20029;-84
2021/12/13 07:54:54;;;;;;;31.23;13.98;;;6.20;63.20;;;;;;5017446;28;20531;-84
2021/12/13 07:57:32;;;;;;;29.65;13.38;;;6.20;62.50;;;;;;5031125;28;20064;-83
2021/12/13 07:59:59;;;;;;;28.55;13.85;;;6.30;62.90;;;;;;5029892;28;20507;-84
2021/12/13 08:02:33;;;;;;;27.00;12.30;;;6.40;63.10;;;;;;5031150;28;20093;-81
2021/12/13 08:05:11;;;;;;;26.02;11.90;;;6.50;63.10;;;;;;5030126;28;20030;-83
2021/12/13 08:07:43;;;;;;;30.10;13.73;;;6.70;62.90;;;;;;5038086;28;20033;-82
2021/12/13 08:10:13;;;;;;;31.60;13.85;;;6.80;62.80;;;;;;5016831;28;20378;-82
2021/12/13 08:12:46;;;;;;;27.52;12.32;;;6.90;62.40;;;;;;5028905;28;20033;-84
2021/12/13 08:15:21;;;;;;;31.45;13.27;;;6.90;62.20;;;;;;5028802;28;20042;-83
2021/12/13 08:18:20;;;;;;;28.00;13.23;;;7.00;62.10;;;;;;5012103;28;20034;-84
2021/12/13 08:20:49;;;;;;;27.80;12.48;;;7.10;61.70;;;;;;5030431;28;20057;-83
2021/12/13 08:23:35;;;;;;;27.30;12.98;;;7.10;61.70;;;;;;5012249;28;20049;-85
2021/12/13 08:26:03;;;;;;;25.40;12.18;;;7.20;61.80;;;;;;5014943;28;20033;-84
2021/12/13 08:29:00;;;;;;;28.88;13.07;;;7.30;62.00;;;;;;5030289;28;20427;-82
2021/12/13 08:31:30;;;;;;;27.67;12.98;;;7.30;62.00;;;;;;5020386;28;20042;-84
2021/12/13 08:34:08;;;;;;;26.65;12.82;;;7.40;62.10;;;;;;5030097;28;20038;-83
2021/12/13 08:36:41;;;;;;;27.60;13.25;;;7.40;62.30;;;;;;5030134;28;20551;-83
2021/12/13 08:39:26;;;;;;;27.25;12.65;;;7.40;62.40;;;;;;5030238;28;20037;-83
2021/12/13 08:42:09;;;;;;;28.95;12.57;;;7.50;62.40;;;;;;5028296;28;20026;-80
2021/12/13 08:44:56;;;;;;;28.13;13.32;;;7.50;62.30;;;;;;5012131;28;20125;-82
2021/12/13 08:47:51;;;;;;;23.77;12.60;;;7.60;62.30;;;;;;4998622;28;20112;-82
2021/12/13 08:50:30;;;;;;;26.23;12.77;;;7.60;62.10;;;;;;5029598;28;20049;-81
2021/12/13 08:53:04;;;;;;;25.60;12.65;;;7.60;62.00;;;;;;5031166;28;20105;-82
2021/12/13 08:55:35;;;;;;;24.83;12.55;;;7.70;62.00;;;;;;5030318;28;20059;-83
2021/12/13 08:58:04;;;;;;;29.02;13.68;;;7.70;62.00;;;;;;5030349;28;20049;-82
2021/12/13 09:00:35;;;;;;;27.67;13.27;;;7.70;61.90;;;;;;5031555;28;20030;-81
2021/12/13 09:03:16;;;;;;;27.95;13.20;;;7.70;61.70;;;;;;5010652;28;20413;-82
2021/12/13 09:05:56;;;;;;;30.13;13.73;;;7.70;61.70;;;;;;5036063;28;20029;-86
2021/12/13 09:08:35;;;;;;;31.52;15.43;;;7.70;61.70;;;;;;5038310;28;20109;-89
2021/12/13 09:11:12;;;;;;;31.80;16.65;;;7.70;61.70;;;;;;5036677;28;20039;-93
2021/12/13 09:14:13;;;;;;;35.00;17.35;;;7.70;61.00;;;;;;5035772;28;20492;-92
2021/12/13 09:17:21;;;;;;;35.97;17.63;;;7.70;60.40;;;;;;5037681;28;20044;-93
2021/12/13 09:19:57;;;;;;;38.05;18.00;;;7.60;59.90;;;;;;5002116;28;20038;-89
2021/12/13 09:22:40;;;;;;;33.65;17.02;;;7.60;59.50;;;;;;5011361;28;20038;-89
2021/12/13 09:25:21;;;;;;;37.63;17.75;;;7.50;59.40;;;;;;5038641;28;20032;-91
2021/12/13 09:27:49;;;;;;;35.80;17.45;;;7.50;59.20;;;;;;5038353;28;20104;-92
2021/12/13 09:30:20;;;;;;;37.38;18.35;;;7.50;59.00;;;;;;5021063;28;20065;-90
2021/12/13 09:33:15;;;;;;;37.10;17.45;;;7.40;59.10;;;;;;5037875;28;20038;-92
2021/12/13 09:35:47;;;;;;;33.28;17.23;;;7.40;58.80;;;;;;5040086;28;20040;-91
2021/12/13 09:38:41;;;;;;;36.17;18.00;;;7.40;58.60;;;;;;5038015;28;20045;-86
2021/12/13 09:41:19;;;;;;;32.47;17.67;;;7.30;58.70;;;;;;5038169;28;20548;-89
2021/12/13 09:44:08;;;;;;;34.55;17.35;;;7.30;58.60;;;;;;5038812;28;20415;-88
2021/12/13 09:46:49;;;;;;;32.88;17.60;;;7.30;58.30;;;;;;5038233;28;20049;-90
2021/12/13 09:49:33;;;;;;;39.85;18.80;;;7.30;58.20;;;;;;5037703;28;20215;-90
2021/12/13 09:52:02;;;;;;;34.40;17.27;;;7.30;58.10;;;;;;5038128;28;20037;-91
2021/12/13 09:54:35;;;;;;;34.45;18.05;;;7.20;57.90;;;;;;5039422;28;20061;-91
2021/12/13 09:57:16;;;;;;;34.47;17.35;;;7.20;57.70;;;;;;5037225;28;20053;-89
2021/12/13 09:59:49;;;;;;;38.83;18.15;;;7.30;57.80;;;;;;5039193;28;20033;-87
2021/12/13 10:02:23;;;;;;;38.53;19.27;;;7.20;57.90;;;;;;5039120;28;20124;-89
2021/12/13 10:04:52;;;;;;;34.08;17.25;;;7.20;58.30;;;;;;5036443;28;20311;-78
2021/12/13 10:07:26;;;;;;;40.10;18.75;;;7.20;58.00;;;;;;5020785;28;20021;-90
2021/12/13 10:10:00;;;;;;;34.00;17.33;;;7.20;58.10;;;;;;5036845;28;20135;-90
2021/12/13 10:12:56;;;;;;;32.90;16.98;;;7.20;58.40;;;;;;5037760;28;20025;-86
2021/12/13 10:15:26;;;;;;;34.43;17.30;;;7.10;58.60;;;;;;5040223;28;20126;-89
2021/12/13 10:17:58;;;;;;;36.25;17.70;;;7.10;58.70;;;;;;5040456;28;20498;-91
2021/12/13 10:20:36;;;;;;;32.08;17.20;;;7.10;58.70;;;;;;5041693;28;20045;-89
2021/12/13 10:23:06;;;;;;;33.95;17.45;;;7.00;58.70;;;;;;5042086;28;20173;-90
2021/12/13 10:25:38;;;;;;;31.67;17.17;;;7.00;58.90;;;;;;5041529;28;20034;-89
2021/12/13 10:28:09;;;;;;;31.33;16.92;;;7.00;58.80;;;;;;5021162;28;20061;-90
2021/12/13 10:30:44;;;;;;;33.45;16.00;;;7.00;58.90;;;;;;5039634;28;20084;-89
2021/12/13 10:33:11;;;;;;;33.70;17.23;;;7.00;58.90;;;;;;5039414;28;20044;-80
2021/12/13 10:35:40;;;;;;;31.83;17.17;;;7.00;58.90;;;;;;5022332;28;20496;-86
2021/12/13 10:38:21;;;;;;;32.45;16.42;;;6.90;58.90;;;;;;5043235;28;20042;-93
2021/12/13 10:40:54;;;;;;;28.45;15.38;;;6.90;58.90;;;;;;5040119;28;20038;-85
2021/12/13 10:43:25;;;;;;;32.17;16.35;;;6.90;58.80;;;;;;5024967;28;20029;-90
2021/12/13 10:45:56;;;;;;;34.53;17.65;;;7.00;58.70;;;;;;5042075;28;20064;-91
2021/12/13 10:48:27;;;;;;;33.50;15.93;;;6.90;58.60;;;;;;5041893;28;20535;-88
2021/12/13 10:50:59;;;;;;;33.72;16.80;;;7.00;58.30;;;;;;5041620;28;20792;-87
2021/12/13 10:53:26;;;;;;;35.50;16.38;;;7.00;58.20;;;;;;5024515;28;20064;-85
2021/12/13 10:56:01;;;;;;;27.42;15.57;;;7.00;58.10;;;;;;5021235;28;20037;-86
2021/12/13 10:58:32;;;;;;;30.17;15.93;;;7.00;58.20;;;;;;5040574;28;20029;-88
2021/12/13 11:01:05;;;;;;;30.90;16.58;;;7.00;58.00;;;;;;5050039;28;20099;-89
2021/12/13 11:03:32;;;;;;;31.80;16.48;;;7.00;58.10;;;;;;5039119;28;20033;-85
2021/12/13 11:05:59;;;;;;;29.60;16.55;;;6.90;58.40;;;;;;5039622;28;20542;-88
2021/12/13 11:08:27;;;;;;;32.78;17.13;;;6.90;58.20;;;;;;5039246;28;20084;-88
2021/12/13 11:11:08;;;;;;;34.05;16.90;;;6.90;58.40;;;;;;5040505;28;20069;-88
2021/12/13 11:13:37;;;;;;;27.92;15.20;;;6.90;58.40;;;;;;5040555;28;20068;-83
2021/12/13 11:16:29;;;;;;;32.92;16.45;;;6.90;58.10;;;;;;5038192;28;20091;-91
2021/12/13 11:18:56;;;;;;;33.63;16.70;;;6.90;58.20;;;;;;5039379;28;20041;-87
2021/12/13 11:21:31;;;;;;;32.95;16.25;;;6.90;58.00;;;;;;5038366;28;20047;-87
2021/12/13 11:23:58;;;;;;;30.42;16.67;;;6.90;58.00;;;;;;5025042;28;20033;-87
2021/12/13 11:26:29;;;;;;;27.42;15.60;;;6.90;58.00;;;;;;5041338;28;20038;-89
2021/12/13 11:28:56;;;;;;;33.63;15.93;;;6.90;57.90;;;;;;5042308;28;20045;-91
2021/12/13 11:31:30;;;;;;;30.23;15.90;;;6.90;57.90;;;;;;5039436;28;20088;-89
2021/12/13 11:34:03;;;;;;;29.02;15.93;;;6.90;57.90;;;;;;5039364;28;20064;-90
2021/12/13 11:37:07;;;;;;;30.42;16.20;;;6.90;58.00;;;;;;5036706;28;20096;-84
2021/12/13 11:40:27;;;;;;;27.20;13.82;;;6.90;58.30;;;;;;5033813;28;20182;-84
2021/12/13 11:43:19;;;;;;;25.80;14.23;;;6.90;59.70;;;;;;4947243;28;20046;-84
2021/12/13 11:45:57;;;;;;;25.90;14.00;;;6.90;61.10;;;;;;5034713;28;20037;-85
2021/12/13 11:48:44;;;;;;;29.27;15.32;;;6.80;61.00;;;;;;5034197;28;20037;-88
2021/12/13 11:51:40;;;;;;;30.00;14.82;;;6.80;61.00;;;;;;5035056;28;20041;-85
2021/12/13 11:54:46;;;;;;;25.60;14.38;;;6.70;60.90;;;;;;5037903;28;20290;-88
2021/12/13 11:57:48;;;;;;;27.30;14.45;;;6.70;60.40;;;;;;5038005;28;20037;-86
2021/12/13 12:00:53;;;;;;;26.77;14.63;;;6.80;60.10;;;;;;5033028;28;20032;-88
2021/12/13 12:03:37;;;;;;;24.48;14.05;;;6.80;60.20;;;;;;5039665;28;20104;-86
2021/12/13 12:06:41;;;;;;;28.25;14.20;;;6.70;60.30;;;;;;5021552;28;20034;-83
2021/12/13 12:09:30;;;;;;;27.98;14.52;;;6.80;60.50;;;;;;5017945;28;20040;-87
2021/12/13 12:12:25;;;;;;;27.35;14.13;;;6.80;60.50;;;;;;5037526;28;20093;-92
2021/12/13 12:15:00;;;;;;;26.77;14.07;;;6.70;60.60;;;;;;5014633;28;20037;-85
2021/12/13 12:17:29;;;;;;;27.30;14.00;;;6.80;60.70;;;;;;5036481;28;20647;-89
2021/12/13 12:19:56;;;;;;;27.85;14.82;;;6.80;60.60;;;;;;5037016;28;20041;-88
2021/12/13 12:22:22;;;;;;;32.40;15.60;;;6.80;60.70;;;;;;5039950;28;20037;-87
2021/12/13 12:24:52;;;;;;;27.30;15.57;;;6.80;60.60;;;;;;5024069;28;20067;-91
2021/12/13 12:27:22;;;;;;;29.33;16.15;;;6.90;60.70;;;;;;5041586;28;20048;-84
2021/12/13 12:29:54;;;;;;;27.85;15.68;;;6.90;60.60;;;;;;5044496;28;20032;-91
2021/12/13 12:32:26;;;;;;;35.58;16.13;;;6.80;60.60;;;;;;5043105;28;20052;-90
2021/12/13 12:35:00;;;;;;;29.13;15.40;;;6.90;60.70;;;;;;5042172;28;20496;-87
2021/12/13 12:37:48;;;;;;;31.80;15.18;;;6.90;60.70;;;;;;5022028;28;20053;-92
2021/12/13 12:40:22;;;;;;;31.88;16.23;;;6.90;60.80;;;;;;5035409;28;20044;-90
2021/12/13 12:42:51;;;;;;;32.50;17.00;;;6.90;60.90;;;;;;5036145;28;20038;-91
2021/12/13 12:45:45;;;;;;;30.58;17.08;;;6.90;61.30;;;;;;5042672;28;20026;-84
2021/12/13 12:48:16;;;;;;;31.33;16.25;;;6.90;60.80;;;;;;5037319;28;20093;-80
2021/12/13 12:50:49;;;;;;;38.30;16.58;;;6.90;60.80;;;;;;5036933;28;20036;-89
2021/12/13 12:53:29;;;;;;;33.20;17.42;;;6.90;60.90;;;;;;5035284;28;20010;-91
2021/12/13 12:56:08;;;;;;;32.80;16.55;;;6.90;61.00;;;;;;5020779;28;20061;-91
2021/12/13 12:58:54;;;;;;;34.55;17.85;;;6.90;61.00;;;;;;5035136;28;20034;-88
2021/12/13 13:01:40;;;;;;;;;;;6.90;61.00;;;;;;5021797;28;20034;-90
2021/12/13 13:04:12;;;;;;;35.05;17.20;;;6.90;61.10;;;;;;5038971;28;19913;-87
2021/12/13 13:06:50;;;;;;;34.47;17.65;;;6.90;61.00;;;;;;5037462;28;20040;-90
2021/12/13 13:09:16;;;;;;;30.50;16.98;;;6.90;61.10;;;;;;5037400;28;20060;-92
2021/12/13 13:11:46;;;;;;;31.73;16.83;;;7.00;61.00;;;;;;5021060;28;20060;-90
2021/12/13 13:14:17;;;;;;;31.13;17.27;;;6.90;61.00;;;;;;5020768;28;20033;-86
2021/12/13 13:16:56;;;;;;;32.97;16.88;;;7.00;61.20;;;;;;5033942;28;20065;-87
2021/12/13 13:19:35;;;;;;;30.77;16.40;;;6.90;61.10;;;;;;5035610;28;20064;-86
2021/12/13 13:22:26;;;;;;;31.15;16.48;;;7.00;61.20;;;;;;5037629;28;20067;-90
2021/12/13 13:25:00;;;;;;;29.00;15.27;;;6.90;61.10;;;;;;5036067;28;20025;-85
2021/12/13 13:27:29;;;;;;;33.50;17.23;;;6.90;61.00;;;;;;5043639;28;20033;-86
2021/12/13 13:29:56;;;;;;;30.17;16.67;;;7.00;61.60;;;;;;5042751;28;20255;-87
2021/12/13 13:32:23;;;;;;;36.92;18.42;;;6.90;61.70;;;;;;5049679;28;20191;-90
2021/12/13 13:34:53;;;;;;;31.63;17.38;;;6.90;61.70;;;;;;5038255;28;20052;-82